Time;durP1;ratioP1;P1;durP2;ratioP2;P2;SDS_P1;SDS_P2;PMS_P1;PMS_P2;Temp;Humidity;BMP_temperature;BMP_pressure;BME280_temperature;BME280_humidity;BME280_pressure;Samples;Min_cycle;Max_cycle;Signal;HPM_P1;HPM_P2
2023/09/05 00:01:45;;;;;;;6.65;5.00;;;;;;;16.55;100.00;101926.03;5065264;28;20099;-74
2023/09/05 00:04:12;;;;;;;12.80;5.15;;;;;;;16.50;100.00;101923.50;5059527;28;20062;-74
2023/09/05 00:06:38;;;;;;;8.15;5.22;;;;;;;16.45;100.00;101928.06;5063973;28;20470;-74
2023/09/05 00:09:05;;;;;;;7.00;4.88;;;;;;;16.47;100.00;101928.00;5063106;28;20155;-74
2023/09/05 00:11:31;;;;;;;6.65;4.75;;;;;;;16.42;100.00;101925.53;5061829;28;20054;-74
2023/09/05 00:13:56;;;;;;;6.60;4.78;;;;;;;16.35;100.00;101918.75;5063909;28;20095;-74
2023/09/05 00:16:21;;;;;;;7.75;5.70;;;;;;;16.30;100.00;101915.38;5062335;28;20548;-74
2023/09/05 00:18:47;;;;;;;9.82;4.88;;;;;;;16.31;100.00;101922.34;5062810;28;20032;-74
2023/09/05 00:21:15;;;;;;;6.32;4.97;;;;;;;16.27;100.00;101921.59;5063297;28;20029;-74
2023/09/05 00:23:41;;;;;;;6.57;5.05;;;;;;;16.15;100.00;101906.16;5051447;28;20028;-74
2023/09/05 00:26:06;;;;;;;5.63;4.93;;;;;;;16.19;100.00;101922.75;5063011;28;20024;-74
2023/09/05 00:28:33;;;;;;;7.20;4.68;;;;;;;16.13;100.00;101926.41;5064354;28;20039;-74
2023/09/05 00:31:01;;;;;;;7.15;5.00;;;;;;;16.12;100.00;101924.66;5062996;28;20107;-74
2023/09/05 00:33:28;;;;;;;7.35;5.18;;;;;;;16.08;100.00;101926.53;5062446;28;20029;-74
2023/09/05 00:35:54;;;;;;;6.32;4.90;;;;;;;16.06;100.00;101933.63;5061197;28;20070;-74
2023/09/05 00:38:20;;;;;;;6.35;5.45;;;;;;;15.99;100.00;101918.94;5063659;28;20063;-74
2023/09/05 00:40:46;;;;;;;7.50;5.20;;;;;;;15.94;100.00;101922.59;5060001;28;20036;-74
2023/09/05 00:43:11;;;;;;;7.00;5.30;;;;;;;15.86;100.00;101926.31;5067224;28;20040;-74
2023/09/05 00:45:51;;;;;;;7.45;5.35;;;;;;;15.88;100.00;101934.13;5060847;28;20033;-74
2023/09/05 00:48:18;;;;;;;7.15;5.70;;;;;;;15.86;100.00;101928.94;5053902;28;20098;-74
2023/09/05 00:50:46;;;;;;;10.40;5.32;;;;;;;15.80;100.00;101928.25;5061170;28;20071;-74
2023/09/05 00:53:12;;;;;;;7.32;5.72;;;;;;;15.76;100.00;101935.34;5050660;28;20035;-74
2023/09/05 00:55:38;;;;;;;7.25;5.50;;;;;;;15.69;100.00;101928.50;5062594;28;20388;-74
2023/09/05 00:58:04;;;;;;;6.82;5.18;;;;;;;15.71;100.00;101925.88;5061521;28;20053;-74
2023/09/05 01:00:29;;;;;;;7.50;5.38;;;;;;;15.61;100.00;101923.44;5062029;28;20052;-74
2023/09/05 01:02:54;;;;;;;7.72;5.72;;;;;;;15.61;100.00;101919.97;5061751;28;20029;-74
2023/09/05 01:05:24;;;;;;;6.72;5.93;;;;;;;15.61;100.00;101920.81;5063031;28;20033;-74
2023/09/05 01:08:05;;;;;;;7.25;6.40;;;;;;;15.59;100.00;101935.75;5062676;28;20420;-74
2023/09/05 01:10:46;;;;;;;8.68;6.25;;;;;;;15.55;100.00;101928.88;5048941;28;20115;-74
2023/09/05 01:13:11;;;;;;;8.95;6.70;;;;;;;15.57;100.00;101927.06;5061809;28;20040;-74
2023/09/05 01:15:36;;;;;;;7.85;6.63;;;;;;;15.57;100.00;101927.06;5062085;28;20025;-74
2023/09/05 01:18:02;;;;;;;8.98;6.95;;;;;;;15.54;100.00;101916.63;5063228;28;20025;-74
2023/09/05 01:20:43;;;;;;;8.55;6.97;;;;;;;15.57;100.00;101924.44;5062238;28;20036;-74
2023/09/05 01:23:17;;;;;;;8.30;7.47;;;;;;;15.52;100.00;101923.69;5066305;28;20487;-74
2023/09/05 01:25:45;;;;;;;7.93;6.97;;;;;;;15.54;100.00;101924.53;5051383;28;20376;-74
2023/09/05 01:28:11;;;;;;;8.35;6.93;;;;;;;15.52;100.00;101912.31;5068410;28;20036;-74
2023/09/05 01:30:41;;;;;;;8.57;7.10;;;;;;;15.55;100.00;101936.75;5063859;28;20108;-74
2023/09/05 01:33:08;;;;;;;8.57;6.88;;;;;;;15.48;100.00;101929.94;5066723;28;20029;-74
2023/09/05 01:35:33;;;;;;;9.85;7.35;;;;;;;15.43;100.00;101921.31;5062803;28;20064;-74
2023/09/05 01:38:00;;;;;;;9.57;7.32;;;;;;;15.49;100.00;101941.31;5066226;28;20071;-74
2023/09/05 01:40:25;;;;;;;10.93;7.50;;;;;;;15.46;100.00;101939.63;5065495;28;20028;-74
2023/09/05 01:42:51;;;;;;;11.23;7.63;;;;;;;15.43;100.00;101944.94;5063854;28;20078;-74
2023/09/05 01:45:16;;;;;;;8.27;7.00;;;;;;;15.33;100.00;101925.06;5066187;28;20085;-74
2023/09/05 01:47:42;;;;;;;9.60;7.70;;;;;;;15.35;100.00;101934.66;5063400;28;20408;-74
2023/09/05 01:50:08;;;;;;;11.38;7.88;;;;;;;15.30;100.00;101931.25;5065598;28;20032;-74
2023/09/05 01:52:33;;;;;;;11.88;8.02;;;;;;;15.33;100.00;101933.81;5065309;28;20032;-74
2023/09/05 01:54:58;;;;;;;12.75;8.32;;;;;;;15.29;100.00;101933.94;5064363;28;20041;-74
2023/09/05 01:57:24;;;;;;;9.07;7.93;;;;;;;15.27;100.00;101931.38;5068200;28;20365;-74
2023/09/05 01:59:50;;;;;;;9.43;8.07;;;;;;;15.28;100.00;101933.09;5073676;28;20106;-74
2023/09/05 02:02:15;;;;;;;10.20;8.32;;;;;;;15.19;100.00;101918.41;5070978;28;20025;-74
2023/09/05 02:04:41;;;;;;;9.68;7.97;;;;;;;15.27;100.00;101928.75;5073136;28;20111;-74
2023/09/05 02:07:08;;;;;;;8.95;8.02;;;;;;;15.20;100.00;101925.41;5070229;28;20446;-74
2023/09/05 02:09:35;;;;;;;13.77;8.35;;;;;;;15.16;100.00;101920.25;5072868;28;20549;-74
2023/09/05 02:12:00;;;;;;;9.90;7.82;;;;;;;15.16;100.00;101928.13;5069663;28;20013;-74
2023/09/05 02:14:25;;;;;;;8.52;7.63;;;;;;;15.14;100.00;101925.56;5073010;28;20027;-74
2023/09/05 02:16:51;;;;;;;11.68;8.23;;;;;;;15.14;100.00;101924.69;5069556;28;20020;-74
2023/09/05 02:19:17;;;;;;;11.82;8.13;;;;;;;15.12;100.00;101924.72;5071598;28;20056;-74
2023/09/05 02:21:43;;;;;;;9.52;7.78;;;;;;;15.09;100.00;101922.19;5069458;28;20067;-74
2023/09/05 02:24:08;;;;;;;9.35;7.95;;;;;;;15.10;100.00;101913.38;5071030;28;20434;-74
2023/09/05 02:26:34;;;;;;;8.68;7.55;;;;;;;15.00;100.00;101904.03;5071463;28;20033;-74
2023/09/05 02:28:59;;;;;;;9.57;7.25;;;;;;;15.07;100.00;101913.47;5069739;28;20099;-74
2023/09/05 02:31:24;;;;;;;8.90;7.35;;;;;;;15.04;100.00;101912.69;5072704;28;20858;-74
2023/09/05 02:33:50;;;;;;;12.20;7.25;;;;;;;15.05;100.00;101922.31;5066094;28;20086;-74
2023/09/05 02:36:18;;;;;;;9.98;6.80;;;;;;;15.06;100.00;101921.41;5073643;28;20551;-74
2023/09/05 02:38:44;;;;;;;8.55;7.03;;;;;;;15.03;100.00;101934.59;5065645;28;20411;-74
2023/09/05 02:41:14;;;;;;;7.80;6.85;;;;;;;14.96;100.00;101921.63;5072616;28;20028;-74
2023/09/05 02:43:40;;;;;;;9.65;6.53;;;;;;;15.02;100.00;101925.88;5067133;28;20020;-74
2023/09/05 02:46:06;;;;;;;8.88;6.80;;;;;;;14.98;100.00;101916.34;5070653;28;20361;-74
2023/09/05 02:48:32;;;;;;;7.13;6.22;;;;;;;14.95;100.00;101921.66;5060229;28;20404;-74
2023/09/05 02:51:05;;;;;;;10.50;6.90;;;;;;;14.94;100.00;101917.28;5071703;28;20025;-74
2023/09/05 02:53:31;;;;;;;;;;;;;;;14.92;100.00;101914.72;5072889;28;20065;-74
2023/09/05 02:55:57;;;;;;;8.88;6.80;;;;;;;14.83;100.00;101909.69;5069591;28;19916;-74
2023/09/05 02:58:25;;;;;;;9.70;6.78;;;;;;;14.69;100.00;101896.91;5073040;28;20017;-74
2023/09/05 03:00:50;;;;;;;8.30;6.60;;;;;;;14.74;100.00;101905.50;5069117;28;20021;-74
2023/09/05 03:03:16;;;;;;;9.02;6.95;;;;;;;14.65;100.00;101900.50;5072685;28;20519;-74
2023/09/05 03:05:42;;;;;;;10.80;6.55;;;;;;;14.65;100.00;101902.25;5069205;28;20050;-74
2023/09/05 03:08:08;;;;;;;7.57;6.57;;;;;;;14.67;100.00;101900.47;5070288;28;20036;-74
2023/09/05 03:10:33;;;;;;;7.20;6.47;;;;;;;14.69;100.00;101907.41;5067950;28;20067;-74
2023/09/05 03:12:58;;;;;;;10.27;6.95;;;;;;;14.68;100.00;101910.94;5071219;28;20029;-74
2023/09/05 03:15:25;;;;;;;7.47;6.18;;;;;;;14.64;100.00;101900.53;5067276;28;20384;-74
2023/09/05 03:17:51;;;;;;;10.25;6.30;;;;;;;14.64;100.00;101913.66;5070750;28;20036;-74
2023/09/05 03:20:18;;;;;;;8.10;6.22;;;;;;;14.61;100.00;101917.19;5067592;28;20537;-74
2023/09/05 03:22:43;;;;;;;8.00;6.25;;;;;;;14.54;100.00;101910.38;5070390;28;20032;-74
2023/09/05 03:25:09;;;;;;;8.23;6.43;;;;;;;14.55;100.00;101914.75;5067437;28;20037;-74
2023/09/05 03:27:34;;;;;;;7.22;6.03;;;;;;;14.51;100.00;101918.31;5069291;28;20036;-74
2023/09/05 03:30:00;;;;;;;11.23;6.70;;;;;;;14.39;100.00;101902.84;5067328;28;20021;-74
2023/09/05 03:32:26;;;;;;;10.55;6.97;;;;;;;14.37;100.00;101905.47;5070007;28;20025;-74
2023/09/05 03:34:52;;;;;;;8.52;6.45;;;;;;;14.27;100.00;101896.94;5067867;28;20024;-74
2023/09/05 03:37:17;;;;;;;8.35;5.93;;;;;;;14.29;100.00;101903.03;5068398;28;20103;-74
2023/09/05 03:39:43;;;;;;;8.68;6.88;;;;;;;14.27;100.00;101894.31;5070459;28;20086;-74
2023/09/05 03:42:11;;;;;;;11.90;7.05;;;;;;;14.23;100.00;101897.06;5065266;28;20044;-74
2023/09/05 03:44:37;;;;;;;9.93;6.32;;;;;;;14.18;100.00;101891.91;5071214;28;20029;-74
2023/09/05 03:47:02;;;;;;;9.82;7.20;;;;;;;14.25;100.00;101900.50;5063947;28;20029;-74
2023/09/05 03:49:28;;;;;;;10.18;6.88;;;;;;;14.22;100.00;101906.69;5063398;28;20032;-74
2023/09/05 03:51:57;;;;;;;8.13;6.60;;;;;;;14.23;100.00;101897.91;5070438;28;20021;-74
2023/09/05 03:54:22;;;;;;;7.57;6.35;;;;;;;14.22;100.00;101896.22;5071045;28;20218;-74
2023/09/05 03:56:47;;;;;;;7.38;6.53;;;;;;;14.21;100.00;101894.47;5071269;28;20567;-74
2023/09/05 03:59:14;;;;;;;9.82;7.15;;;;;;;14.23;100.00;101897.06;5068652;28;20024;-74
2023/09/05 04:01:39;;;;;;;10.85;6.78;;;;;;;14.20;100.00;101897.13;5071679;28;20028;-74
2023/09/05 04:04:07;;;;;;;10.98;6.82;;;;;;;14.23;100.00;101895.31;5067770;28;20112;-74
2023/09/05 04:06:33;;;;;;;11.13;7.35;;;;;;;14.23;100.00;101900.53;5070245;28;20074;-74
2023/09/05 04:08:58;;;;;;;8.65;7.00;;;;;;;14.24;100.00;101897.00;5072328;28;20028;-74
2023/09/05 04:11:23;;;;;;;11.25;7.03;;;;;;;14.22;100.00;101885.72;5064833;28;20111;-74
2023/09/05 04:13:48;;;;;;;7.70;6.25;;;;;;;14.20;100.00;101884.88;5071791;28;20407;-74
2023/09/05 04:16:14;;;;;;;8.68;6.70;;;;;;;14.22;100.00;101890.06;5066017;28;20040;-74
2023/09/05 04:18:39;;;;;;;8.13;6.60;;;;;;;14.25;100.00;101882.13;5070134;28;20035;-74
2023/09/05 04:21:04;;;;;;;7.22;6.43;;;;;;;14.24;100.00;101881.28;5067401;28;20032;-74
2023/09/05 04:23:30;;;;;;;7.88;6.13;;;;;;;14.25;100.00;101879.50;5069546;28;20093;-74
2023/09/05 04:26:02;;;;;;;8.43;6.20;;;;;;;14.24;100.00;101878.66;5066122;28;20028;-74
2023/09/05 04:28:29;;;;;;;8.50;6.30;;;;;;;14.24;100.00;101872.56;5069122;28;20036;-74
2023/09/05 04:31:00;;;;;;;8.18;5.85;;;;;;;14.25;100.00;101877.75;5065722;28;20028;-74
2023/09/05 04:33:25;;;;;;;7.15;5.88;;;;;;;14.19;100.00;101867.44;5069593;28;20165;-74
2023/09/05 04:35:51;;;;;;;6.75;5.95;;;;;;;14.21;100.00;101880.50;5065936;28;20103;-74
2023/09/05 04:38:17;;;;;;;6.20;5.43;;;;;;;14.21;100.00;101880.50;5068498;28;20043;-74
2023/09/05 04:40:42;;;;;;;7.13;5.90;;;;;;;14.16;100.00;101872.72;5065669;28;20028;-74
2023/09/05 04:43:07;;;;;;;7.85;5.72;;;;;;;14.13;100.00;101870.19;5068938;28;20589;-74
2023/09/05 04:45:33;;;;;;;8.63;5.63;;;;;;;14.19;100.00;101879.66;5070417;28;20507;-75
2023/09/05 04:47:58;;;;;;;7.43;6.00;;;;;;;14.19;100.00;101883.16;5067200;28;20043;-75
2023/09/05 04:50:24;;;;;;;7.28;5.70;;;;;;;14.18;100.00;101873.53;5065977;28;20035;-74
2023/09/05 04:52:49;;;;;;;6.22;5.28;;;;;;;14.17;100.00;101860.47;5067649;28;20120;-74
2023/09/05 04:55:15;;;;;;;7.05;5.90;;;;;;;14.21;100.00;101867.38;5073952;28;20468;-74
2023/09/05 04:57:42;;;;;;;9.07;5.40;;;;;;;14.20;100.00;101866.53;5074986;28;20035;-74
2023/09/05 05:00:08;;;;;;;7.72;5.40;;;;;;;14.23;100.00;101860.34;5073886;28;20107;-74
2023/09/05 05:02:34;;;;;;;6.25;5.45;;;;;;;14.26;100.00;101874.25;5071716;28;20032;-74
2023/09/05 05:05:00;;;;;;;6.40;5.35;;;;;;;14.26;100.00;101869.00;5074622;28;20032;-74
2023/09/05 05:07:26;;;;;;;6.05;5.45;;;;;;;14.30;100.00;101872.41;5072599;28;20483;-74
2023/09/05 05:09:51;;;;;;;6.60;5.13;;;;;;;14.32;100.00;101870.59;5069952;28;20040;-74
2023/09/05 05:12:17;;;;;;;7.10;4.95;;;;;;;14.34;100.00;101873.22;5073159;28;20154;-74
2023/09/05 05:14:42;;;;;;;6.32;5.22;;;;;;;14.34;100.00;101878.47;5068964;28;20025;-74
2023/09/05 05:17:07;;;;;;;6.93;4.90;;;;;;;14.37;100.00;101881.00;5072821;28;20032;-74
2023/09/05 05:19:33;;;;;;;8.50;5.15;;;;;;;14.39;100.00;101887.09;5071257;28;20029;-74
2023/09/05 05:21:58;;;;;;;8.05;5.50;;;;;;;14.41;100.00;101882.66;5070385;28;20020;-74
2023/09/05 05:24:24;;;;;;;6.13;4.88;;;;;;;14.45;100.00;101890.44;5073697;28;20056;-74
2023/09/05 05:26:50;;;;;;;7.50;5.18;;;;;;;14.48;100.00;101884.25;5068464;28;20372;-74
2023/09/05 05:29:15;;;;;;;9.60;5.10;;;;;;;14.53;100.00;101895.53;5074066;28;20035;-74
2023/09/05 05:31:41;;;;;;;7.05;5.13;;;;;;;14.61;100.00;101890.97;5066106;28;20021;-74
2023/09/05 05:34:06;;;;;;;7.68;4.88;;;;;;;14.65;100.00;101897.00;5074126;28;20024;-74
2023/09/05 05:36:32;;;;;;;6.47;4.80;;;;;;;14.70;100.00;101898.63;5068165;28;20036;-74
2023/09/05 05:39:01;;;;;;;8.40;4.72;;;;;;;14.75;100.00;101898.53;5072771;28;20082;-74
2023/09/05 05:41:27;;;;;;;5.10;4.60;;;;;;;14.76;100.00;101889.75;5068256;28;20040;-74
2023/09/05 05:43:53;;;;;;;5.22;4.72;;;;;;;14.86;100.00;101903.50;5071203;28;20037;-74
2023/09/05 05:46:18;;;;;;;6.80;5.00;;;;;;;14.86;100.00;101886.00;5074710;28;20040;-74
2023/09/05 05:48:45;;;;;;;7.72;4.65;;;;;;;14.94;100.00;101891.03;5063514;28;20120;-74
2023/09/05 05:51:11;;;;;;;6.43;4.90;;;;;;;15.01;100.00;101897.88;5074663;28;20040;-74
2023/09/05 05:53:37;;;;;;;7.68;4.63;;;;;;;15.03;100.00;101885.56;5070829;28;20037;-74
2023/09/05 05:56:02;;;;;;;6.30;4.80;;;;;;;15.13;100.00;101891.44;5072999;28;20097;-74
2023/09/05 05:58:29;;;;;;;7.03;4.70;;;;;;;15.23;100.00;101899.03;5070915;28;20060;-74
2023/09/05 06:00:55;;;;;;;6.82;4.60;;;;;;;15.31;100.00;101890.97;5073185;28;20032;-74
2023/09/05 06:03:21;;;;;;;6.47;4.72;;;;;;;15.37;100.00;101895.22;5069710;28;20065;-74
2023/09/05 06:05:48;;;;;;;6.32;4.32;;;;;;;15.48;100.00;101893.16;5072392;28;20028;-74
2023/09/05 06:08:13;;;;;;;7.18;5.32;;;;;;;15.55;100.00;101888.59;5072095;28;20032;-74
2023/09/05 06:10:39;;;;;;;8.82;4.65;;;;;;;15.63;100.00;101886.59;5068079;28;20021;-74
2023/09/05 06:13:04;;;;;;;6.18;4.82;;;;;;;15.69;100.00;101891.72;5071644;28;20155;-74
2023/09/05 06:15:31;;;;;;;5.18;4.05;;;;;;;15.67;100.00;101881.25;5068545;28;20028;-74
2023/09/05 06:17:57;;;;;;;5.80;4.55;;;;;;;15.84;100.00;101890.44;5070759;28;20039;-74
2023/09/05 06:20:22;;;;;;;7.85;4.55;;;;;;;15.91;100.00;101884.09;5068655;28;20032;-74
2023/09/05 06:22:47;;;;;;;6.25;4.45;;;;;;;15.96;100.00;101892.72;5071031;28;20032;-74
2023/09/05 06:25:13;;;;;;;7.22;4.85;;;;;;;16.04;100.00;101893.34;5067437;28;20021;-74
2023/09/05 06:27:43;;;;;;;6.55;3.90;;;;;;;16.04;100.00;101874.91;5070953;28;20029;-74
2023/09/05 06:30:13;;;;;;;7.68;4.30;;;;;;;16.19;100.00;101884.13;5068403;28;20029;-74
2023/09/05 06:32:42;;;;;;;14.10;4.93;;;;;;;16.27;100.00;101886.53;5070790;28;20115;-74
2023/09/05 06:35:09;;;;;;;5.78;4.13;;;;;;;16.35;100.00;101888.03;5067730;28;20114;-74
2023/09/05 06:37:35;;;;;;;6.63;4.07;;;;;;;16.46;100.00;101892.09;5069481;28;20024;-74
2023/09/05 06:40:01;;;;;;;7.57;4.03;;;;;;;16.52;100.00;101895.38;5073240;28;20033;-74
2023/09/05 06:42:27;;;;;;;5.53;3.67;;;;;;;16.60;100.00;101892.50;5070435;28;20043;-74
2023/09/05 06:44:52;;;;;;;6.97;3.92;;;;;;;16.67;100.00;101894.03;5072285;28;20028;-74
2023/09/05 06:47:17;;;;;;;8.05;4.00;;;;;;;16.74;100.00;101895.56;5069880;28;20380;-75
2023/09/05 06:49:43;;;;;;;5.80;3.75;;;;;;;16.80;100.00;101889.25;5067395;28;20395;-74
2023/09/05 06:52:08;;;;;;;5.82;3.90;;;;;;;16.83;100.00;101883.88;5068783;28;20495;-74
2023/09/05 06:54:34;;;;;;;5.15;4.30;;;;;;;16.93;100.00;101890.56;5072270;28;20037;-74
2023/09/05 06:56:59;;;;;;;5.60;3.88;;;;;;;16.99;100.00;101879.84;5071370;28;20024;-74
2023/09/05 06:59:25;;;;;;;5.82;3.88;;;;;;;17.01;100.00;101875.38;5070480;28;20031;-74
2023/09/05 07:01:50;;;;;;;7.25;3.80;;;;;;;17.12;100.00;101884.69;5072738;28;20028;-74
2023/09/05 07:04:16;;;;;;;5.15;3.97;;;;;;;17.19;100.00;101879.16;5068677;28;20431;-74
2023/09/05 07:06:41;;;;;;;7.65;3.95;;;;;;;17.27;100.00;101879.75;5070032;28;20020;-74
2023/09/05 07:09:07;;;;;;;5.97;3.95;;;;;;;17.32;100.00;101872.53;5071521;28;20024;-74
2023/09/05 07:11:33;;;;;;;5.70;3.50;;;;;;;17.38;100.00;101881.16;5066995;28;20033;-74
2023/09/05 07:13:58;;;;;;;10.10;3.85;;;;;;;17.43;100.00;101874.81;5072329;28;20024;-74
2023/09/05 07:16:24;;;;;;;5.68;3.72;;;;;;;17.51;100.00;101875.38;5065023;28;20086;-74
2023/09/05 07:18:49;;;;;;;5.35;3.35;;;;;;;17.61;100.00;101867.13;5071600;28;20081;-74
2023/09/05 07:21:15;;;;;;;7.47;4.18;;;;;;;17.69;100.00;101860.69;5065970;28;20051;-74
2023/09/05 07:23:40;;;;;;;8.07;3.55;;;;;;;17.74;100.00;101863.13;5070655;28;20028;-74
2023/09/05 07:26:07;;;;;;;8.32;3.67;;;;;;;17.81;100.00;101867.28;5067192;28;20454;-74
2023/09/05 07:28:33;;;;;;;9.95;3.75;;;;;;;17.93;100.00;101866.84;5068883;28;20031;-74
2023/09/05 07:30:59;;;;;;;4.68;3.20;;;;;;;18.01;100.00;101872.66;5072744;28;20032;-74
2023/09/05 07:33:24;;;;;;;5.28;3.80;;;;;;;18.05;100.00;101857.59;5069533;28;20029;-74
2023/09/05 07:35:49;;;;;;;12.40;3.85;;;;;;;18.14;100.00;101851.09;5070033;28;20028;-74
2023/09/05 07:38:17;;;;;;;6.18;3.47;;;;;;;18.29;100.00;101855.78;5069563;28;20039;-74
2023/09/05 07:40:43;;;;;;;10.88;3.55;;;;;;;18.41;100.00;101855.28;5071141;28;20085;-74
2023/09/05 07:43:08;;;;;;;11.45;3.95;;;;;;;18.50;100.00;101854.03;5069411;28;20063;-74
2023/09/05 07:45:34;;;;;;;5.80;3.63;;;;;;;18.58;100.00;101859.03;5069097;28;20545;-75
2023/09/05 07:47:59;;;;;;;5.05;3.33;;;;;;;18.65;100.00;101855.22;5062968;28;20383;-74
2023/09/05 07:50:25;;;;;;;5.57;3.40;;;;;;;18.63;100.00;101849.13;5067507;28;20071;-74
2023/09/05 07:52:51;;;;;;;5.78;3.30;;;;;;;18.82;100.00;101868.59;5068290;28;20031;-74
2023/09/05 07:55:16;;;;;;;5.63;3.70;;;;;;;18.86;100.00;101856.97;5070720;28;20033;-74
2023/09/05 07:57:42;;;;;;;7.10;3.83;;;;;;;19.03;100.00;101858.94;5068362;28;20021;-74
2023/09/05 08:00:15;;;;;;;5.55;3.30;;;;;;;19.06;100.00;101863.19;5071497;28;20416;-74
2023/09/05 08:02:41;;;;;;;6.28;3.75;;;;;;;19.21;100.00;101872.25;5067067;28;20537;-74
2023/09/05 08:05:07;;;;;;;7.72;3.58;;;;;;;19.31;100.00;101879.72;5070978;28;20032;-74
2023/09/05 08:07:32;;;;;;;7.03;3.42;;;;;;;19.38;100.00;101869.72;5069427;28;20016;-74
2023/09/05 08:10:00;;;;;;;5.85;3.53;;;;;;;19.41;100.00;101859.88;5066168;28;20024;-74
2023/09/05 08:12:25;;;;;;;5.53;3.20;;;;;;;19.54;100.00;101869.91;5069541;28;20046;-74
2023/09/05 08:14:51;;;;;;;5.30;3.33;;;;;;;19.66;100.00;101866.75;5066462;28;20041;-78
2023/09/05 08:17:16;;;;;;;6.15;3.47;;;;;;;19.71;100.00;101862.09;5068906;28;20055;-74
2023/09/05 08:19:41;;;;;;;6.25;3.47;;;;;;;19.88;100.00;101867.50;5066822;28;20376;-74
2023/09/05 08:22:07;;;;;;;7.22;3.30;;;;;;;19.98;100.00;101853.81;5068545;28;20027;-74
2023/09/05 08:24:32;;;;;;;8.85;3.45;;;;;;;20.14;100.00;101872.50;5068074;28;20096;-74
2023/09/05 08:26:58;;;;;;;6.60;2.90;;;;;;;20.25;100.00;101865.75;5066610;28;20073;-74
2023/09/05 08:29:23;;;;;;;7.15;3.20;;;;;;;20.28;100.00;101865.63;5072785;28;20025;-74
2023/09/05 08:31:49;;;;;;;4.50;3.63;;;;;;;20.38;100.00;101876.63;5071633;28;20032;-74
2023/09/05 08:34:14;;;;;;;7.03;3.45;;;;;;;20.50;99.81;101859.25;5075913;28;20043;-74
2023/09/05 08:36:40;;;;;;;7.07;3.50;;;;;;;20.61;100.00;101858.78;5073158;28;20048;-74
2023/09/05 08:39:06;;;;;;;9.77;4.00;;;;;;;20.69;99.63;101852.16;5074054;28;20442;-74
2023/09/05 08:41:31;;;;;;;5.88;3.55;;;;;;;20.79;100.00;101856.06;5075182;28;20033;-74
2023/09/05 08:43:57;;;;;;;5.03;3.45;;;;;;;20.84;97.96;101852.34;5071395;28;20016;-74
2023/09/05 08:46:24;;;;;;;8.00;3.83;;;;;;;20.92;97.28;101858.09;5075611;28;20032;-74
2023/09/05 08:48:51;;;;;;;6.78;3.47;;;;;;;20.98;97.73;101847.19;5067340;28;20052;-74
2023/09/05 08:51:18;;;;;;;6.68;3.47;;;;;;;21.16;98.71;101856.00;5074721;28;20517;-74
2023/09/05 08:53:54;;;;;;;6.78;3.78;;;;;;;21.24;95.92;101859.09;5070874;28;20028;-74
2023/09/05 08:56:20;;;;;;;6.07;3.20;;;;;;;21.31;96.91;101859.63;5062362;28;20386;-74
2023/09/05 08:58:47;;;;;;;8.23;3.33;;;;;;;21.44;95.99;101860.72;5070450;28;20089;-74
2023/09/05 09:01:12;;;;;;;4.45;3.58;;;;;;;21.53;92.44;101856.75;5074041;28;20045;-74
2023/09/05 09:03:37;;;;;;;7.78;3.83;;;;;;;21.67;91.34;101863.00;5071073;28;20032;-75
2023/09/05 09:06:03;;;;;;;5.20;3.72;;;;;;;21.77;91.42;101852.75;5071864;28;20060;-75
2023/09/05 09:08:43;;;;;;;9.10;3.80;;;;;;;21.89;95.13;101860.03;5074357;28;20024;-74
2023/09/05 09:11:10;;;;;;;5.18;3.35;;;;;;;21.97;89.13;101859.63;5068525;28;20036;-74
2023/09/05 09:13:38;;;;;;;5.40;3.55;;;;;;;22.12;91.22;101863.22;5073202;28;20032;-74
2023/09/05 09:16:03;;;;;;;6.55;3.05;;;;;;;22.22;89.47;101853.84;5069171;28;20085;-74
2023/09/05 09:18:32;;;;;;;5.50;3.50;;;;;;;22.40;87.99;101862.56;5072415;28;20025;-75
2023/09/05 09:21:02;;;;;;;7.60;3.30;;;;;;;22.48;89.89;101868.28;5068692;28;20025;-74
2023/09/05 09:23:33;;;;;;;5.20;3.25;;;;;;;22.64;88.18;101874.44;5071540;28;20480;-75
2023/09/05 09:26:01;;;;;;;5.68;3.33;;;;;;;22.72;87.09;101870.47;5074911;28;20499;-74
2023/09/05 09:28:28;;;;;;;6.03;3.15;;;;;;;22.80;85.56;101863.78;5071042;28;20032;-75
2023/09/05 09:30:58;;;;;;;6.38;3.78;;;;;;;22.90;88.82;101875.56;5074687;28;20029;-75
2023/09/05 09:33:24;;;;;;;6.18;3.38;;;;;;;23.09;85.52;101870.06;5070663;28;20025;-75
2023/09/05 09:36:08;;;;;;;6.22;3.42;;;;;;;23.20;84.43;101869.41;5074614;28;20027;-75
2023/09/05 09:38:34;;;;;;;4.40;3.42;;;;;;;23.36;83.15;101870.19;5071286;28;20028;-75
2023/09/05 09:41:02;;;;;;;3.70;2.83;;;;;;;23.54;82.04;101873.53;5072915;28;20036;-75
2023/09/05 09:43:31;;;;;;;6.88;3.05;;;;;;;23.66;85.51;101871.03;5071539;28;20035;-74
2023/09/05 09:45:59;;;;;;;4.95;3.05;;;;;;;23.69;82.00;101878.88;5073918;28;20078;-75
2023/09/05 09:48:26;;;;;;;6.10;3.17;;;;;;;23.78;82.41;101886.28;5068009;28;20480;-75
2023/09/05 09:50:54;;;;;;;9.20;3.58;;;;;;;23.85;81.07;101876.97;5072897;28;20119;-74
2023/09/05 09:53:29;;;;;;;4.53;3.00;;;;;;;23.87;77.76;101875.06;5071059;28;20032;-74
2023/09/05 09:55:55;;;;;;;8.65;3.20;;;;;;;24.06;81.33;101866.75;5073250;28;20532;-74
2023/09/05 09:58:23;;;;;;;4.30;2.92;;;;;;;24.20;80.68;101869.38;5071066;28;20093;-75
2023/09/05 10:00:49;;;;;;;5.20;3.30;;;;;;;24.25;77.59;101867.25;5073043;28;20032;-74
2023/09/05 10:03:16;;;;;;;5.28;3.35;;;;;;;24.32;79.62;101873.03;5057477;28;20025;-74
2023/09/05 10:05:41;;;;;;;6.35;3.50;;;;;;;24.48;80.74;101872.94;5073128;28;20023;-75
2023/09/05 10:08:10;;;;;;;3.78;3.00;;;;;;;24.65;80.85;101867.31;5071716;28;20033;-75
2023/09/05 10:10:40;;;;;;;5.60;3.40;;;;;;;24.79;78.94;101862.88;5068192;28;20020;-75
2023/09/05 10:13:07;;;;;;;4.15;3.45;;;;;;;24.88;80.89;101867.59;5071699;28;20041;-74
2023/09/05 10:15:35;;;;;;;7.57;3.42;;;;;;;24.83;79.27;101859.91;5067700;28;20088;-75
2023/09/05 10:18:02;;;;;;;5.43;3.30;;;;;;;24.87;78.93;101844.56;5071669;28;20032;-75
2023/09/05 10:20:27;;;;;;;5.32;3.40;;;;;;;24.93;77.62;101858.34;5068138;28;20060;-74
2023/09/05 10:22:57;;;;;;;3.42;2.97;;;;;;;24.97;75.27;101843.81;5070275;28;20063;-75
2023/09/05 10:25:26;;;;;;;6.45;3.55;;;;;;;25.11;79.79;101848.19;5074255;28;20028;-74
2023/09/05 10:27:51;;;;;;;4.45;3.15;;;;;;;25.16;74.67;101858.63;5065366;28;20108;-74
2023/09/05 10:30:18;;;;;;;5.70;3.10;;;;;;;25.20;74.77;101852.94;5064704;28;20103;-75
2023/09/05 10:32:47;;;;;;;4.03;3.20;;;;;;;25.31;75.52;101854.88;5056788;28;20024;-74
2023/09/05 10:35:22;;;;;;;4.05;2.88;;;;;;;25.42;77.61;101849.63;5073171;28;20493;-75
2023/09/05 10:37:55;;;;;;;4.10;3.08;;;;;;;25.42;72.34;101851.47;5056236;28;20054;-75
2023/09/05 10:40:35;;;;;;;5.38;3.50;;;;;;;25.49;73.58;101850.06;5073029;28;20120;-74
2023/09/05 10:43:03;;;;;;;3.50;3.10;;;;;;;25.51;69.41;101844.63;5059455;28;20426;-74
2023/09/05 10:45:31;;;;;;;4.90;3.05;;;;;;;25.58;71.06;101856.56;5071763;28;20590;-75
2023/09/05 10:47:59;;;;;;;7.15;3.45;;;;;;;25.69;72.68;101856.66;5069518;28;20049;-74
2023/09/05 10:50:25;;;;;;;3.58;3.00;;;;;;;25.76;71.30;101849.91;5069778;28;20512;-74
2023/09/05 10:53:11;;;;;;;5.22;3.55;;;;;;;25.87;69.59;101849.19;5068765;28;20017;-75
2023/09/05 10:55:50;;;;;;;5.05;2.83;;;;;;;25.91;69.01;101832.81;5072015;28;20094;-75
2023/09/05 10:58:42;;;;;;;4.40;3.03;;;;;;;26.00;71.96;101841.13;5068609;28;20040;-74
2023/09/05 11:01:29;;;;;;;3.30;2.97;;;;;;;26.16;70.20;101841.72;5071906;28;20102;-75
2023/09/05 11:04:03;;;;;;;2.80;2.50;;;;;;;26.25;66.43;101833.00;5068152;28;20066;-75
2023/09/05 11:06:30;;;;;;;6.72;2.90;;;;;;;26.41;67.67;101829.19;5063023;28;20029;-74
2023/09/05 11:09:06;;;;;;;3.65;3.08;;;;;;;26.56;68.48;101833.44;5072832;28;20033;-75
2023/09/05 11:11:40;;;;;;;4.32;3.22;;;;;;;26.56;63.47;101828.06;5062450;28;20044;-74
2023/09/05 11:14:06;;;;;;;6.35;2.67;;;;;;;26.69;63.35;101828.00;5072336;28;20063;-74
2023/09/05 11:16:49;;;;;;;4.80;2.80;;;;;;;26.80;66.37;101828.88;5065148;28;20021;-74
2023/09/05 11:19:32;;;;;;;;;;;;;;;26.88;69.77;101830.97;5070905;28;20052;-74